CheckWX is a tool to help pilots better visualize weather data.  It is not intended as a substitute for an official pre-flight weather briefing.

18:19:42 UTC

LDDU TAF
Dubrovnik Airport
Dubrovnik, Croatia
TAF LDDU 241725Z 2418/2518 13012KT CAVOK TX23/2511Z TN14/2504Z TEMPO 2418/2500 13007KT BECMG 2500/2502 VRB02KT

Apr-24@
18:00 UTC

Apr-24 @ 18:00 UTC

Apr-25@
00:00 UTC

Apr-25 @ 00:00 UTC

TAF LDDU 241725Z 2418/2518 13012KT CAVOK TX23/2511Z TN14/2504Z
Wind
  • 130° at 12 KTS
Cloud Levels
  • No significant clouds

Apr-24@
18:00 UTC

Apr-24 @ 18:00 UTC

Apr-25@
00:00 UTC

Apr-25 @ 00:00 UTC

TEMPO 2418/2500 13007KT

Temporary

Temporary Changes expected for less than half the time period

Wind
  • 130° at 7 KTS

Apr-25@
00:00 UTC

Apr-25 @ 00:00 UTC

Apr-25@
18:00 UTC

Apr-25 @ 18:00 UTC

BECMG 2500/2502 VRB02KT

Becoming

Becoming Conditions expected by Thu, Apr 25, 2019 @ 02:00 UTC

Wind
  • Variable at 2 KTS
Cloud Levels
  • No significant clouds